Terminal Aerodrome Forecast
Issued by NWS

Home | Current Version | Previous Version | Text Only | Print | Product List | Glossary On
Versions: 1 2 3 4 5 6 7 8 9 10 11 12
000
FTUS46 KSGX 290520
TAFSNA
TAF
KSNA 290520Z 2906/3006 VRB04KT P6SM FEW010
      TEMPO 2910/2914 BKN010
     FM291800 22009KT P6SM FEW200
     FM300200 VRB04KT P6SM FEW012=

USA.gov is the U.S. government's official web portal to all federal, state and local government web resources and services.